createdAt,value
2023-04-22T00:00:30.449Z,100.43
2023-04-22T00:10:33.798Z,98.07
2023-04-22T00:20:39.316Z,101.50
2023-04-22T00:30:42.786Z,101.70
2023-04-22T00:40:47.528Z,95.90
2023-04-22T00:50:50.942Z,95.90
2023-04-22T01:00:55.732Z,97.57
2023-04-22T01:10:59.462Z,96.67
2023-04-22T01:21:04.518Z,98.20
2023-04-22T01:31:10.071Z,95.37
2023-04-22T01:41:14.750Z,94.00
2023-04-22T01:51:21.867Z,92.47
2023-04-22T02:01:25.332Z,93.87
2023-04-22T02:11:30.116Z,90.43
2023-04-22T02:21:33.606Z,95.43
2023-04-22T02:31:38.448Z,90.87
2023-04-22T02:41:41.936Z,92.07
2023-04-22T02:51:46.913Z,92.97
2023-04-22T03:01:50.478Z,90.33
2023-04-22T03:12:10.032Z,91.13
2023-04-22T03:22:13.645Z,88.57
2023-04-22T03:32:19.076Z,90.03
2023-04-22T03:42:25.942Z,93.17
2023-04-22T03:52:30.764Z,89.00
2023-04-22T04:02:38.893Z,88.60
2023-04-22T04:12:44.421Z,90.27
2023-04-22T04:22:48.174Z,85.33
2023-04-22T04:32:53.522Z,92.03
2023-04-22T04:42:58.039Z,93.20
2023-04-22T04:53:10.164Z,97.27
2023-04-22T05:03:17.505Z,99.60
2023-04-22T05:13:23.654Z,101.73
2023-04-22T05:23:28.054Z,102.47
2023-04-22T05:33:35.114Z,105.00
2023-04-22T05:43:38.725Z,104.33
2023-04-22T05:53:52.421Z,100.93
2023-04-22T06:03:57.393Z,98.30
2023-04-22T06:14:03.420Z,97.23
2023-04-22T06:24:09.305Z,107.50
2023-04-22T06:34:14.450Z,101.77
2023-04-22T06:44:18.303Z,101.60
2023-04-22T06:54:51.232Z,101.37
2023-04-22T07:04:55.051Z,105.63
2023-04-22T07:15:00.108Z,110.20
2023-04-22T07:25:03.605Z,113.70
2023-04-22T07:35:09.749Z,119.13
2023-04-22T07:45:13.488Z,117.70
2023-04-22T07:55:18.553Z,124.22
2023-04-22T08:05:22.044Z,119.85
2023-04-22T08:15:27.038Z,128.70
2023-04-22T08:25:31.530Z,133.65
2023-04-22T08:35:37.966Z,131.82
2023-04-22T08:45:42.353Z,133.40
2023-04-22T08:55:49.871Z,137.70
2023-04-22T09:05:54.537Z,131.18
2023-04-22T09:16:00.095Z,136.85
2023-04-22T09:26:03.713Z,138.82
2023-04-22T09:36:11.783Z,136.23
2023-04-22T09:46:15.430Z,137.20
2023-04-22T09:56:20.388Z,141.20
2023-04-22T10:06:23.799Z,144.85
2023-04-22T10:16:32.204Z,143.20
2023-04-22T10:26:44.412Z,146.15
2023-04-22T10:37:02.046Z,143.05
2023-04-22T10:47:05.609Z,143.75
2023-04-22T10:57:12.489Z,146.65
2023-04-22T11:07:17.168Z,147.80
2023-04-22T11:17:22.742Z,152.75
2023-04-22T11:27:27.232Z,152.95
2023-04-22T11:37:32.388Z,154.02
2023-04-22T11:47:37.048Z,158.98
2023-04-22T11:57:42.356Z,170.20
2023-04-22T12:07:45.695Z,165.20
2023-04-22T12:17:52.360Z,155.38
2023-04-22T12:27:56.178Z,149.48
2023-04-22T12:38:00.884Z,164.38
2023-04-22T12:48:04.611Z,154.88
2023-04-22T12:58:09.478Z,158.07
2023-04-22T13:08:12.975Z,155.73
2023-04-22T13:18:18.135Z,151.18
2023-04-22T13:28:21.749Z,145.90
2023-04-22T13:38:26.601Z,133.57
2023-04-22T13:48:30.168Z,120.82
2023-04-22T13:58:35.278Z,116.60
2023-04-22T14:08:39.098Z,115.38
2023-04-22T14:18:45.663Z,110.03
2023-04-22T14:28:49.054Z,107.40
2023-04-22T14:38:53.877Z,110.20
2023-04-22T14:48:57.303Z,109.07
2023-04-22T14:59:02.099Z,106.87
2023-04-22T15:09:05.669Z,109.43
2023-04-22T15:19:10.605Z,114.80
2023-04-22T15:29:14.264Z,115.47
2023-04-22T15:39:20.190Z,104.23
2023-04-22T15:49:23.660Z,104.93
2023-04-22T15:59:28.716Z,108.40
2023-04-22T16:09:32.059Z,100.83
2023-04-22T16:19:37.112Z,110.17
2023-04-22T16:29:41.333Z,96.13
2023-04-22T16:39:46.385Z,101.33
2023-04-22T16:49:49.907Z,100.27
2023-04-22T16:59:54.715Z,98.03
2023-04-22T17:09:58.096Z,96.67
2023-04-22T17:20:03.062Z,103.27
2023-04-22T17:30:08.156Z,101.17
2023-04-22T17:40:13.360Z,95.17
2023-04-22T17:50:16.795Z,104.90
2023-04-22T18:00:22.135Z,98.73
2023-04-22T18:10:25.716Z,98.30
2023-04-22T18:20:30.463Z,99.47
2023-04-22T18:30:33.961Z,98.53
2023-04-22T18:40:38.736Z,96.87
2023-04-22T18:50:42.171Z,106.57
2023-04-22T19:00:46.944Z,97.37
2023-04-22T19:10:50.630Z,93.80
2023-04-22T19:20:55.531Z,91.77
2023-04-22T19:31:00.173Z,98.17
2023-04-22T19:41:05.097Z,95.53
2023-04-22T19:51:10.138Z,102.07
2023-04-22T20:01:15.462Z,91.57
2023-04-22T20:11:19.358Z,111.17
2023-04-22T20:21:24.313Z,99.17
2023-04-22T20:31:28.136Z,104.43
2023-04-22T20:41:38.732Z,97.53
2023-04-22T20:51:42.872Z,93.27
2023-04-22T21:01:48.508Z,88.53
2023-04-22T21:11:52.782Z,90.73
2023-04-22T21:21:59.483Z,94.57
2023-04-22T21:32:09.213Z,94.27
2023-04-22T21:42:14.909Z,92.57
2023-04-22T21:52:18.265Z,95.13
2023-04-22T22:02:23.324Z,104.63
2023-04-22T22:12:26.934Z,94.60
2023-04-22T22:22:32.408Z,92.07
2023-04-22T22:32:37.540Z,95.63
2023-04-22T22:42:42.242Z,110.67
2023-04-22T22:52:45.665Z,95.80
2023-04-22T23:02:50.605Z,96.93
2023-04-22T23:12:54.130Z,97.40
2023-04-22T23:23:02.444Z,96.70
2023-04-22T23:33:07.403Z,98.73
2023-04-22T23:43:12.330Z,97.00
2023-04-22T23:53:15.733Z,93.00
